Licenciado Benito Juarez International Airport
MMMX : now visible

Airfield :











YOU CAN JOIN US ON...

 
LOGIN :

Register | Disclaimer

   EN    FR    IT 

 









Legend :    VFR   Marginal VFR   IFR   Intensive IFR   Very Intensive IFR
Visi :
Ceiling :
>= 8 km
>= 3000ft
5 to 8 km
1000 to 3000 ft
1500m to 5 km
500 to 1000 ft
800 to 1500m
200 to 500 ft
< 800m
< 200 ft
Symbols :   Thunderstorms  Fog  Heavy snow  Heavy precipitations  Wind > 20 kt






- Airport Elevation : 7316 ft
- IATA code : MEX


MMMX - Licenciado Benito Juarez International

CURRENT METAR :
  • 070343Z 18003KT 9SM SKC 17/06 A3037 NOSIG RMK HZY

EXPIRED METARs :
  • 070242Z 09004KT 8SM SKC 18/07 A3034 NOSIG RMK SLP128 52024 908 HZY
  • 070149Z 05006KT 8SM SKC 19/07 A3032 NOSIG RMK HZY

TAF TAF MMMX
Valid from the 07 at 00:00 until the 08 at 06:00 UTC


062329Z 0700/0806 06008KT P6SM SKC TX25/0721Z TN09/0712Z
BECMG 0702/0703 04005KT
FM071700 04008KT P6SM SKC
BECMG 0721/0722 06010KT SCT025
FM080300 04005KT P6SM SKC
MMFR FIR / North America



MET'MAP, your aeronautical weather chart ! - Copyright ORBIFLY December 2007 - Disclaimer

ORBIFLY MET'MAP TEAM :

Programming & Development : Alexandra Zaïnal
Original concept : Baudouin d'Aumeries
Technical & hardware support : Manuel Goepfert
Assistance : Marc-Olivier Méhu




SOURCES & CREDITS :

   NOAA       Earth
Advisory